Map

Track Data

SID SEASON NUMBER BASIN SUBBASIN NAME ISO_TIME NATURE LAT LON WMO_WIND WMO_PRES WMO_AGENCY TRACK_TYPE DIST2LAND LANDFALL IFLAG USA_AGENCY USA_ATCF_ID USA_LAT USA_LON USA_RECORD USA_STATUS USA_WIND USA_PRES USA_SSHS USA_R34_NE USA_R34_SE USA_R34_SW USA_R34_NW USA_R50_NE USA_R50_SE USA_R50_SW USA_R50_NW USA_R64_NE USA_R64_SE USA_R64_SW USA_R64_NW USA_POCI USA_ROCI USA_RMW USA_EYE TOKYO_LAT TOKYO_LON TOKYO_GRADE TOKYO_WIND TOKYO_PRES TOKYO_R50_DIR TOKYO_R50_LONG TOKYO_R50_SHORT TOKYO_R30_DIR TOKYO_R30_LONG TOKYO_R30_SHORT TOKYO_LAND CMA_LAT CMA_LON CMA_CAT CMA_WIND CMA_PRES HKO_LAT HKO_LON HKO_CAT HKO_WIND HKO_PRES NEWDELHI_LAT NEWDELHI_LON NEWDELHI_GRADE NEWDELHI_WIND NEWDELHI_PRES NEWDELHI_CI NEWDELHI_DP NEWDELHI_POCI REUNION_LAT REUNION_LON REUNION_TYPE REUNION_WIND REUNION_PRES REUNION_TNUM REUNION_CI REUNION_RMW REUNION_R34_NE REUNION_R34_SE REUNION_R34_SW REUNION_R34_NW REUNION_R50_NE REUNION_R50_SE REUNION_R50_SW REUNION_R50_NW REUNION_R64_NE REUNION_R64_SE REUNION_R64_SW REUNION_R64_NW BOM_LAT BOM_LON BOM_TYPE BOM_WIND BOM_PRES BOM_TNUM BOM_CI BOM_RMW BOM_R34_NE BOM_R34_SE BOM_R34_SW BOM_R34_NW BOM_R50_NE BOM_R50_SE BOM_R50_SW BOM_R50_NW BOM_R64_NE BOM_R64_SE BOM_R64_SW BOM_R64_NW BOM_ROCI BOM_POCI BOM_EYE BOM_POS_METHOD BOM_PRES_METHOD NADI_LAT NADI_LON NADI_CAT NADI_WIND NADI_PRES WELLINGTON_LAT WELLINGTON_LON WELLINGTON_WIND WELLINGTON_PRES DS824_LAT DS824_LON DS824_STAGE DS824_WIND DS824_PRES TD9636_LAT TD9636_LON TD9636_STAGE TD9636_WIND TD9636_PRES TD9635_LAT TD9635_LON TD9635_WIND TD9635_PRES TD9635_ROCI NEUMANN_LAT NEUMANN_LON NEUMANN_CLASS NEUMANN_WIND NEUMANN_PRES MLC_LAT MLC_LON MLC_CLASS MLC_WIND MLC_PRES USA_GUST BOM_GUST BOM_GUST_PER REUNION_GUST REUNION_GUST_PER USA_SEAHGT USA_SEARAD_NE USA_SEARAD_SE USA_SEARAD_SW USA_SEARAD_NW STORM_SPEED STORM_DIR
1882111S07093 1882 17 SI WA NOT_NAMED 1882-04-20 18:00:00 NR -6.60000 93.0000 main 854 854 __________O___ -1 -6.60000 93.0000 7 10 212
1882111S07093 1882 17 SI WA NOT_NAMED 1882-04-20 21:00:00 NR -7.03610 92.7224 main 908 908 __________P___ -1 -7.03610 92.7224 7 10 212
1882111S07093 1882 17 SI WA NOT_NAMED 1882-04-21 00:00:00 NR -7.45771 92.4556 main 962 962 __________P___ -1 -7.45771 92.4556 7 10 212
1882111S07093 1882 17 SI WA NOT_NAMED 1882-04-21 03:00:00 NR -7.85045 92.2110 main 1017 1017 __________P___ -1 -7.85045 92.2110 7 9 211
1882111S07093 1882 17 SI WA NOT_NAMED 1882-04-21 06:00:00 NR -8.20000 92.0000 main 1056 1056 __________O___ -1 -8.20000 92.0000 7 8 210
1882111S07093 1882 17 SI WA NOT_NAMED 1882-04-21 09:00:00 NR -8.49709 91.8307 main 1095 1095 __________P___ -1 -8.49709 91.8307 7 6 208
1882111S07093 1882 17 SI WA NOT_NAMED 1882-04-21 12:00:00 NR -8.75238 91.6973 main 1126 1126 __________P___ -1 -8.75238 91.6973 7 5 206
1882111S07093 1882 17 SI WA NOT_NAMED 1882-04-21 15:00:00 NR -8.98149 91.5902 main 1150 1150 __________P___ -1 -8.98149 91.5902 7 5 203
1882111S07093 1882 17 SI WA NOT_NAMED 1882-04-21 18:00:00 NR -9.20000 91.5000 main 1173 1173 __________O___ -1 -9.20000 91.5000 7 5 204
1882111S07093 1882 17 SI WA NOT_NAMED 1882-04-21 21:00:00 NR -9.41187 91.3984 main 1197 1197 __________P___ -1 -9.41187 91.3984 7 5 204
1882111S07093 1882 17 SI WA NOT_NAMED 1882-04-22 00:00:00 NR -9.62000 91.3125 main 1221 1221 __________P___ -1 -9.62000 91.3125 7 5 200
1882111S07093 1882 17 SI WA NOT_NAMED 1882-04-22 03:00:00 NR -9.84313 91.2453 main 1244 1244 __________P___ -1 -9.84313 91.2453 7 5 193
1882111S07093 1882 17 SI WA NOT_NAMED 1882-04-22 06:00:00 NR -10.1000 91.2000 main 1269 1269 __________O___ -1 -10.1000 91.2000 7 6 186
1882111S07093 1882 17 SI WA NOT_NAMED 1882-04-22 09:00:00 NR -10.4262 91.1743 main 1294 1294 __________P___ -1 -10.4262 91.1743 7 7 184
1882111S07093 1882 17 SI WA NOT_NAMED 1882-04-22 12:00:00 NR -10.7850 91.1699 main 1328 1328 __________P___ -1 -10.7850 91.1699 7 7 179
1882111S07093 1882 17 SI WA NOT_NAMED 1882-04-22 15:00:00 NR -11.1513 91.1806 main 1362 1362 __________P___ -1 -11.1513 91.1806 7 7 176
1882111S07093 1882 17 SI WA NOT_NAMED 1882-04-22 18:00:00 NR -11.5000 91.2000 main 1388 1388 __________O___ -1 -11.5000 91.2000 7 7 177
1882111S07093 1882 17 SI WA NOT_NAMED 1882-04-22 21:00:00 NR -11.8122 91.2228 main 1415 1415 __________P___ -1 -11.8122 91.2228 7 6 177
1882111S07093 1882 17 SI WA NOT_NAMED 1882-04-23 00:00:00 NR -12.0925 91.2475 main 1442 1435 __________P___ -1 -12.0925 91.2475 7 5 174
1882111S07093 1882 17 SI WA NOT_NAMED 1882-04-23 03:00:00 NR -12.3516 91.2734 main 1462 1462 __________P___ -1 -12.3516 91.2734 7 5 173
1882111S07093 1882 17 SI WA NOT_NAMED 1882-04-23 06:00:00 NR -12.6000 91.3000 main 1481 __________O___ -1 -12.6000 91.3000 7 5 0

About IBTrACS Database

This database is a web-friendly format of International Best Track Archive for Climate Stewardship (IBTrACS), a global best track data archive curated by NOAA dating back to 1842.

Updated: 2021-12-03